LOL Airport (Derby Field) Information

FAA: LOL - ICAO: KLOL

LOL Airport Location

State Nevada
County Pershing
City Lovelock
LOL Airport is 8 miles southwest of Lovelock, NV.
Latitude 40-03-59.2829N
Longitude 118-33-54.3100W
Elevation 3,907ft

KLOL Airport METARs

METAR KLOL 060853Z AUTO 11004KT 10SM CLR M04/M09 A3027 RMK AO2 SLP258 T10441094 55003
Altimeter 30.27"
Temperature -4.4°C (24.1°F)
Wind 110° at 4KT
Clouds Skies are clear.
Visibility 10.0mi
Time observed: 2021-12-06T08:53:00Z

LOL Airport Details

Status Operational
Activation October 1943
Ownership Public
Usage Public
Chart KLAMATH FALLS
ATC on-site No
Beacon schedule sunset-sunrise
Beacon color clear green

LOL Airport Contacts

Owner PERSHING COUNTY
Owner address COUNTY CLERKS OFFICE, PO BOX 820, LOVELOCK, NV 89419
Owner phone 775-273-2208
Manager TIMOTHY HERITAGE
Manager address 7326 N 79TH LANE, GLENDALE, AZ 85303
Manager phone 623-680-1530

LOL Airport (Derby Field) Radio Frequencies

LOL (Airport) Radio Frequencies

UNICOM 122.8
Common traffic advisory frequency (CTAF) 122.8